PWSweather.com
Personal Weather Stations
Station Observations
VA3TWT
Blenheim Ontario, Blenheim, ON N0P 1A0

Blenheim OntarioBlenheim, ON N0P 1A0

Lat: 42.338464, Lon: -81.988628

Elevation: 688.976

Station Type: Davis vantage Pro2

Latest ConditionsUpdated 5:00:01 PM EST Sunday, Jan 19, 2020
Currently Today's Max Today's Min Today's Average
Temperature 21.9°F-5.6°C 31.3°F-0.4°C 19.0°F-7.2°C 22.3°F-5.4°C
Dew Point 18.0°F-7.8°C 28.4°F-2.0°C 15.8°F-9.0°C 18.7°F-7.4°C
Winds 3.0 mph N4.8 kmh N 13.0 mph -20.9 kmh - - 8.7 mph 14.0 kmh
Wind Gusts 10.0 mph16.1 kmh 29.0 mph46.7 kmh - -
Humidity 84% 89% 83% 86%
Pressure 30.14 in1020.7 mb 30.14 in1020.7 mb 29.67 in1004.7 mb -
Precipitation - 0.01 in0.3 mm - -
Hour Temp Dew Point Humidity Winds Wind Gusts Pressure Precip Precip Rate Daily Precip Total
05:00 PM 21.9°F-5.6°C 18.0°F-7.8°C 84% 3.0 mph N4.8 kmh N 10.0 mph16.1 kmh 30.14 in1020.7 mb 0.00 in0.0 mm 0.00 in0.0 mm 0.01 in0.3 mm
04:50 PM 22.1°F-5.5°C 18.3°F-7.6°C 85% 3.0 mph N4.8 kmh N 9.0 mph14.5 kmh 30.13 in1020.3 mb 0.00 in0.0 mm 0.00 in0.0 mm 0.01 in0.3 mm
04:40 PM 22.1°F-5.5°C 18.3°F-7.6°C 85% 3.0 mph N4.8 kmh N 8.0 mph12.9 kmh 30.13 in1020.3 mb 0.00 in0.0 mm 0.00 in0.0 mm 0.01 in0.3 mm
04:30 PM 22.1°F-5.5°C 18.0°F-7.8°C 84% 5.0 mph N8.0 kmh N 10.0 mph16.1 kmh 30.12 in1020.0 mb 0.00 in0.0 mm 0.00 in0.0 mm 0.01 in0.3 mm
04:20 PM 22.1°F-5.5°C 19.0°F-7.2°C 88% 5.0 mph N8.0 kmh N 12.0 mph19.3 kmh 30.12 in1020.0 mb 0.00 in0.0 mm 0.00 in0.0 mm 0.01 in0.3 mm
04:10 PM 21.9°F-5.6°C 18.9°F-7.3°C 88% 5.0 mph NNW8.0 kmh NNW 10.0 mph16.1 kmh 30.11 in1019.6 mb 0.00 in0.0 mm 0.00 in0.0 mm 0.01 in0.3 mm
04:00 PM 21.7°F-5.7°C 18.9°F-7.3°C 88% 5.0 mph WNW8.0 kmh WNW 11.0 mph17.7 kmh 30.10 in1019.3 mb 0.00 in0.0 mm 0.00 in0.0 mm 0.01 in0.3 mm
03:50 PM 21.7°F-5.7°C 18.9°F-7.3°C 88% 5.0 mph WNW8.0 kmh WNW 13.0 mph20.9 kmh 30.10 in1019.3 mb 0.00 in0.0 mm 0.00 in0.0 mm 0.01 in0.3 mm
03:40 PM 21.9°F-5.6°C 18.9°F-7.3°C 88% 5.0 mph W8.0 kmh W 11.0 mph17.7 kmh 30.09 in1019.0 mb 0.00 in0.0 mm 0.00 in0.0 mm 0.01 in0.3 mm
03:30 PM 21.9°F-5.6°C 18.7°F-7.4°C 87% 7.0 mph W11.3 kmh W 12.0 mph19.3 kmh 30.08 in1018.6 mb 0.00 in0.0 mm 0.00 in0.0 mm 0.01 in0.3 mm
03:20 PM 22.3°F-5.4°C 19.0°F-7.2°C 87% 6.0 mph W9.7 kmh W 12.0 mph19.3 kmh 30.07 in1018.3 mb 0.00 in0.0 mm 0.00 in0.0 mm 0.01 in0.3 mm
03:10 PM 22.5°F-5.3°C 18.9°F-7.3°C 86% 6.0 mph W9.7 kmh W 10.0 mph16.1 kmh 30.07 in1018.3 mb 0.00 in0.0 mm 0.00 in0.0 mm 0.01 in0.3 mm
03:00 PM 22.8°F-5.1°C 19.4°F-7.0°C 86% 6.0 mph W9.7 kmh W 14.0 mph22.5 kmh 30.06 in1017.9 mb 0.00 in0.0 mm 0.00 in0.0 mm 0.01 in0.3 mm
02:50 PM 23.4°F-4.8°C 19.8°F-6.8°C 86% 6.0 mph WNW9.7 kmh WNW 11.0 mph17.7 kmh 30.06 in1017.9 mb 0.00 in0.0 mm 0.00 in0.0 mm 0.01 in0.3 mm
02:40 PM 23.7°F-4.6°C 19.9°F-6.7°C 85% 6.0 mph WNW9.7 kmh WNW 12.0 mph19.3 kmh 30.05 in1017.6 mb 0.01 in0.3 mm 0.00 in0.0 mm 0.01 in0.3 mm
02:30 PM 23.7°F-4.6°C 20.5°F-6.4°C 87% 5.0 mph WNW8.0 kmh WNW 10.0 mph16.1 kmh 30.04 in1017.3 mb 0.01 in0.3 mm 0.00 in0.0 mm 0.01 in0.3 mm
02:20 PM 22.6°F-5.2°C 19.2°F-7.1°C 86% 5.0 mph WNW8.0 kmh WNW 10.0 mph16.1 kmh 30.04 in1017.3 mb 0.01 in0.3 mm 0.00 in0.0 mm 0.01 in0.3 mm
02:10 PM 22.3°F-5.4°C 18.7°F-7.4°C 86% 6.0 mph WNW9.7 kmh WNW 15.0 mph24.1 kmh 30.04 in1017.3 mb 0.01 in0.3 mm 0.00 in0.0 mm 0.01 in0.3 mm
02:00 PM 22.6°F-5.2°C 18.9°F-7.3°C 85% 7.0 mph WNW11.3 kmh WNW 16.0 mph25.7 kmh 30.03 in1016.9 mb 0.01 in0.3 mm 0.00 in0.0 mm 0.01 in0.3 mm
01:50 PM 22.6°F-5.2°C 18.9°F-7.3°C 85% 8.0 mph WNW12.9 kmh WNW 16.0 mph25.7 kmh 30.03 in1016.9 mb 0.01 in0.3 mm 0.06 in1.5 mm 0.01 in0.3 mm
01:40 PM 22.8°F-5.1°C 19.4°F-7.0°C 86% 7.0 mph WNW11.3 kmh WNW 15.0 mph24.1 kmh 30.03 in1016.9 mb 0.00 in0.0 mm 0.00 in0.0 mm 0.00 in0.0 mm
01:30 PM 22.5°F-5.3°C 18.7°F-7.4°C 85% 6.0 mph WNW9.7 kmh WNW 14.0 mph22.5 kmh 30.02 in1016.6 mb 0.00 in0.0 mm 0.00 in0.0 mm 0.00 in0.0 mm
01:20 PM 22.3°F-5.4°C 18.3°F-7.6°C 85% 8.0 mph WNW12.9 kmh WNW 17.0 mph27.4 kmh 30.02 in1016.6 mb 0.00 in0.0 mm 0.00 in0.0 mm 0.00 in0.0 mm
01:10 PM 21.7°F-5.7°C 18.0°F-7.8°C 85% 8.0 mph WNW12.9 kmh WNW 20.0 mph32.2 kmh 30.02 in1016.6 mb 0.00 in0.0 mm 0.00 in0.0 mm 0.00 in0.0 mm
01:00 PM 21.0°F-6.1°C 17.6°F-8.0°C 86% 9.0 mph WNW14.5 kmh WNW 21.0 mph33.8 kmh 30.02 in1016.6 mb 0.00 in0.0 mm 0.00 in0.0 mm 0.00 in0.0 mm
12:50 PM 20.1°F-6.6°C 17.2°F-8.2°C 88% 7.0 mph WNW11.3 kmh WNW 17.0 mph27.4 kmh 30.01 in1016.3 mb 0.00 in0.0 mm 0.00 in0.0 mm 0.00 in0.0 mm
12:40 PM 19.6°F-6.9°C 16.9°F-8.4°C 89% 7.0 mph W11.3 kmh W 17.0 mph27.4 kmh 30.01 in1016.3 mb 0.00 in0.0 mm 0.00 in0.0 mm 0.00 in0.0 mm
12:30 PM 19.8°F-6.8°C 16.9°F-8.4°C 88% 7.0 mph WNW11.3 kmh WNW 18.0 mph29.0 kmh 30.01 in1016.3 mb 0.00 in0.0 mm 0.00 in0.0 mm 0.00 in0.0 mm
12:20 PM 19.9°F-6.7°C 17.1°F-8.3°C 88% 7.0 mph WNW11.3 kmh WNW 15.0 mph24.1 kmh 30.01 in1016.3 mb 0.00 in0.0 mm 0.00 in0.0 mm 0.00 in0.0 mm
12:10 PM 19.8°F-6.8°C 16.5°F-8.6°C 87% 8.0 mph WNW12.9 kmh WNW 18.0 mph29.0 kmh 30.01 in1016.3 mb 0.00 in0.0 mm 0.00 in0.0 mm 0.00 in0.0 mm
12:00 PM 19.8°F-6.8°C 16.5°F-8.6°C 87% 9.0 mph WNW14.5 kmh WNW 17.0 mph27.4 kmh 30.01 in1016.3 mb 0.00 in0.0 mm 0.00 in0.0 mm 0.00 in0.0 mm
11:50 AM 19.9°F-6.7°C 16.7°F-8.5°C 87% 8.0 mph W12.9 kmh W 16.0 mph25.7 kmh 30.00 in1015.9 mb 0.00 in0.0 mm 0.00 in0.0 mm 0.00 in0.0 mm
11:40 AM 20.1°F-6.6°C 16.9°F-8.4°C 87% 8.0 mph WNW12.9 kmh WNW 16.0 mph25.7 kmh 30.00 in1015.9 mb 0.00 in0.0 mm 0.00 in0.0 mm 0.00 in0.0 mm
11:30 AM 20.5°F-6.4°C 17.1°F-8.3°C 87% 8.0 mph W12.9 kmh W 15.0 mph24.1 kmh 30.00 in1015.9 mb 0.00 in0.0 mm 0.00 in0.0 mm 0.00 in0.0 mm
11:20 AM 20.5°F-6.4°C 17.1°F-8.3°C 87% 9.0 mph WNW14.5 kmh WNW 21.0 mph33.8 kmh 30.00 in1015.9 mb 0.00 in0.0 mm 0.00 in0.0 mm 0.00 in0.0 mm
11:10 AM 20.5°F-6.4°C 17.1°F-8.3°C 87% 8.0 mph WNW12.9 kmh WNW 15.0 mph24.1 kmh 30.00 in1015.9 mb 0.00 in0.0 mm 0.00 in0.0 mm 0.00 in0.0 mm
11:00 AM 20.1°F-6.6°C 17.2°F-8.2°C 88% 9.0 mph WNW14.5 kmh WNW 14.0 mph22.5 kmh 29.99 in1015.6 mb 0.00 in0.0 mm 0.00 in0.0 mm 0.00 in0.0 mm
10:50 AM 20.1°F-6.6°C 17.2°F-8.2°C 88% 8.0 mph WNW12.9 kmh WNW 17.0 mph27.4 kmh 29.99 in1015.6 mb 0.00 in0.0 mm 0.00 in0.0 mm 0.00 in0.0 mm
10:40 AM 20.1°F-6.6°C 17.4°F-8.1°C 89% 7.0 mph WNW11.3 kmh WNW 14.0 mph22.5 kmh 29.98 in1015.2 mb 0.00 in0.0 mm 0.00 in0.0 mm 0.00 in0.0 mm
10:30 AM 20.5°F-6.4°C 17.4°F-8.1°C 88% 7.0 mph W11.3 kmh W 16.0 mph25.7 kmh 29.97 in1014.9 mb 0.00 in0.0 mm 0.00 in0.0 mm 0.00 in0.0 mm
10:20 AM 20.7°F-6.3°C 18.0°F-7.8°C 89% 6.0 mph WNW9.7 kmh WNW 19.0 mph30.6 kmh 29.97 in1014.9 mb 0.00 in0.0 mm 0.00 in0.0 mm 0.00 in0.0 mm
10:10 AM 20.5°F-6.4°C 17.6°F-8.0°C 88% 7.0 mph WNW11.3 kmh WNW 17.0 mph27.4 kmh 29.96 in1014.6 mb 0.00 in0.0 mm 0.00 in0.0 mm 0.00 in0.0 mm
10:00 AM 20.7°F-6.3°C 17.4°F-8.1°C 87% 8.0 mph WNW12.9 kmh WNW 16.0 mph25.7 kmh 29.96 in1014.6 mb 0.00 in0.0 mm 0.00 in0.0 mm 0.00 in0.0 mm
09:50 AM 20.7°F-6.3°C 17.4°F-8.1°C 87% 7.0 mph WNW11.3 kmh WNW 18.0 mph29.0 kmh 29.95 in1014.2 mb 0.00 in0.0 mm 0.00 in0.0 mm 0.00 in0.0 mm
09:40 AM 20.7°F-6.3°C 17.4°F-8.1°C 87% 7.0 mph WNW11.3 kmh WNW 13.0 mph20.9 kmh 29.95 in1014.2 mb 0.00 in0.0 mm 0.00 in0.0 mm 0.00 in0.0 mm
09:30 AM 20.5°F-6.4°C 17.4°F-8.1°C 88% 7.0 mph WNW11.3 kmh WNW 17.0 mph27.4 kmh 29.95 in1014.2 mb 0.00 in0.0 mm 0.00 in0.0 mm 0.00 in0.0 mm
09:20 AM 20.7°F-6.3°C 17.6°F-8.0°C 88% 6.0 mph WNW9.7 kmh WNW 13.0 mph20.9 kmh 29.94 in1013.9 mb 0.00 in0.0 mm 0.00 in0.0 mm 0.00 in0.0 mm
09:10 AM 20.8°F-6.2°C 17.2°F-8.2°C 86% 6.0 mph NW9.7 kmh NW 20.0 mph32.2 kmh 29.94 in1013.9 mb 0.00 in0.0 mm 0.00 in0.0 mm 0.00 in0.0 mm
09:00 AM 20.7°F-6.3°C 17.1°F-8.3°C 86% 7.0 mph NW11.3 kmh NW 17.0 mph27.4 kmh 29.93 in1013.5 mb 0.00 in0.0 mm 0.00 in0.0 mm 0.00 in0.0 mm
08:50 AM 20.5°F-6.4°C 17.1°F-8.3°C 87% 9.0 mph WNW14.5 kmh WNW 21.0 mph33.8 kmh 29.93 in1013.5 mb 0.00 in0.0 mm 0.00 in0.0 mm 0.00 in0.0 mm
08:40 AM 19.9°F-6.7°C 17.2°F-8.2°C 89% 6.0 mph WNW9.7 kmh WNW 14.0 mph22.5 kmh 29.93 in1013.5 mb 0.00 in0.0 mm 0.00 in0.0 mm 0.00 in0.0 mm
08:30 AM 19.4°F-7.0°C 16.3°F-8.7°C 88% 7.0 mph W11.3 kmh W 15.0 mph24.1 kmh 29.92 in1013.2 mb 0.00 in0.0 mm 0.00 in0.0 mm 0.00 in0.0 mm
08:20 AM 19.4°F-7.0°C 16.2°F-8.8°C 87% 9.0 mph WNW14.5 kmh WNW 21.0 mph33.8 kmh 29.91 in1012.9 mb 0.00 in0.0 mm 0.00 in0.0 mm 0.00 in0.0 mm
08:10 AM 19.2°F-7.1°C 16.0°F-8.9°C 87% 8.0 mph WNW12.9 kmh WNW 17.0 mph27.4 kmh 29.91 in1012.9 mb 0.00 in0.0 mm 0.00 in0.0 mm 0.00 in0.0 mm
08:00 AM 19.2°F-7.1°C 16.0°F-8.9°C 87% 9.0 mph WNW14.5 kmh WNW 20.0 mph32.2 kmh 29.90 in1012.5 mb 0.00 in0.0 mm 0.00 in0.0 mm 0.00 in0.0 mm
07:50 AM 19.0°F-7.2°C 15.8°F-9.0°C 87% 10.0 mph WNW16.1 kmh WNW 20.0 mph32.2 kmh 29.90 in1012.5 mb 0.00 in0.0 mm 0.00 in0.0 mm 0.00 in0.0 mm
07:40 AM 19.2°F-7.1°C 15.8°F-9.0°C 86% 10.0 mph WNW16.1 kmh WNW 22.0 mph35.4 kmh 29.89 in1012.2 mb 0.00 in0.0 mm 0.00 in0.0 mm 0.00 in0.0 mm
07:30 AM 19.6°F-6.9°C 16.0°F-8.9°C 86% 11.0 mph WNW17.7 kmh WNW 21.0 mph33.8 kmh 29.89 in1012.2 mb 0.00 in0.0 mm 0.00 in0.0 mm 0.00 in0.0 mm
07:20 AM 19.6°F-6.9°C 16.2°F-8.8°C 86% 9.0 mph WNW14.5 kmh WNW 22.0 mph35.4 kmh 29.89 in1012.2 mb 0.00 in0.0 mm 0.00 in0.0 mm 0.00 in0.0 mm
07:10 AM 19.6°F-6.9°C 16.2°F-8.8°C 86% 11.0 mph WNW17.7 kmh WNW 23.0 mph37.0 kmh 29.88 in1011.9 mb 0.00 in0.0 mm 0.00 in0.0 mm 0.00 in0.0 mm
07:00 AM 19.8°F-6.8°C 16.2°F-8.8°C 86% 11.0 mph WNW17.7 kmh WNW 24.0 mph38.6 kmh 29.88 in1011.9 mb 0.00 in0.0 mm 0.00 in0.0 mm 0.00 in0.0 mm
06:50 AM 19.8°F-6.8°C 16.5°F-8.6°C 87% 10.0 mph WNW16.1 kmh WNW 22.0 mph35.4 kmh 29.87 in1011.5 mb 0.00 in0.0 mm 0.00 in0.0 mm 0.00 in0.0 mm
06:40 AM 19.8°F-6.8°C 16.2°F-8.8°C 86% 10.0 mph WNW16.1 kmh WNW 22.0 mph35.4 kmh 29.87 in1011.5 mb 0.00 in0.0 mm 0.00 in0.0 mm 0.00 in0.0 mm
06:30 AM 19.8°F-6.8°C 16.5°F-8.6°C 87% 10.0 mph WNW16.1 kmh WNW 21.0 mph33.8 kmh 29.86 in1011.2 mb 0.00 in0.0 mm 0.00 in0.0 mm 0.00 in0.0 mm
06:20 AM 19.9°F-6.7°C 16.5°F-8.6°C 86% 10.0 mph W16.1 kmh W 19.0 mph30.6 kmh 29.86 in1011.2 mb 0.00 in0.0 mm 0.00 in0.0 mm 0.00 in0.0 mm
06:10 AM 20.3°F-6.5°C 16.5°F-8.6°C 85% 11.0 mph W17.7 kmh W 19.0 mph30.6 kmh 29.85 in1010.8 mb 0.00 in0.0 mm 0.00 in0.0 mm 0.00 in0.0 mm
06:00 AM 20.7°F-6.3°C 17.1°F-8.3°C 86% 11.0 mph WNW17.7 kmh WNW 21.0 mph33.8 kmh 29.85 in1010.8 mb 0.00 in0.0 mm 0.00 in0.0 mm 0.00 in0.0 mm
05:50 AM 20.7°F-6.3°C 16.9°F-8.4°C 85% 11.0 mph WNW17.7 kmh WNW 28.0 mph45.1 kmh 29.84 in1010.5 mb 0.00 in0.0 mm 0.00 in0.0 mm 0.00 in0.0 mm
05:40 AM 20.7°F-6.3°C 16.9°F-8.4°C 85% 9.0 mph WNW14.5 kmh WNW 22.0 mph35.4 kmh 29.84 in1010.5 mb 0.00 in0.0 mm 0.00 in0.0 mm 0.00 in0.0 mm
05:30 AM 20.8°F-6.2°C 17.1°F-8.3°C 85% 10.0 mph WNW16.1 kmh WNW 22.0 mph35.4 kmh 29.84 in1010.5 mb 0.00 in0.0 mm 0.00 in0.0 mm 0.00 in0.0 mm
05:20 AM 21.0°F-6.1°C 17.2°F-8.2°C 85% 9.0 mph W14.5 kmh W 22.0 mph35.4 kmh 29.83 in1010.2 mb 0.00 in0.0 mm 0.00 in0.0 mm 0.00 in0.0 mm
05:10 AM 21.2°F-6.0°C 17.1°F-8.3°C 84% 11.0 mph W17.7 kmh W 21.0 mph33.8 kmh 29.83 in1010.2 mb 0.00 in0.0 mm 0.00 in0.0 mm 0.00 in0.0 mm
05:00 AM 21.4°F-5.9°C 17.6°F-8.0°C 85% 11.0 mph W17.7 kmh W 23.0 mph37.0 kmh 29.82 in1009.8 mb 0.00 in0.0 mm 0.00 in0.0 mm 0.00 in0.0 mm
04:50 AM 21.6°F-5.8°C 17.4°F-8.1°C 84% 12.0 mph W19.3 kmh W 25.0 mph40.2 kmh 29.82 in1009.8 mb 0.00 in0.0 mm 0.00 in0.0 mm 0.00 in0.0 mm
04:40 AM 21.6°F-5.8°C 17.6°F-8.0°C 84% 12.0 mph WNW19.3 kmh WNW 25.0 mph40.2 kmh 29.81 in1009.5 mb 0.00 in0.0 mm 0.00 in0.0 mm 0.00 in0.0 mm
04:30 AM 21.7°F-5.7°C 17.6°F-8.0°C 84% 13.0 mph W20.9 kmh W 25.0 mph40.2 kmh 29.80 in1009.1 mb 0.00 in0.0 mm 0.00 in0.0 mm 0.00 in0.0 mm
04:20 AM 21.9°F-5.6°C 17.8°F-7.9°C 84% 11.0 mph W17.7 kmh W 24.0 mph38.6 kmh 29.80 in1009.1 mb 0.00 in0.0 mm 0.00 in0.0 mm 0.00 in0.0 mm
04:10 AM 21.9°F-5.6°C 18.0°F-7.8°C 84% 13.0 mph W20.9 kmh W 27.0 mph43.5 kmh 29.80 in1009.1 mb 0.00 in0.0 mm 0.00 in0.0 mm 0.00 in0.0 mm
04:00 AM 22.1°F-5.5°C 18.0°F-7.8°C 84% 12.0 mph W19.3 kmh W 23.0 mph37.0 kmh 29.79 in1008.8 mb 0.00 in0.0 mm 0.00 in0.0 mm 0.00 in0.0 mm
03:50 AM 22.3°F-5.4°C 18.3°F-7.6°C 85% 12.0 mph W19.3 kmh W 22.0 mph35.4 kmh 29.79 in1008.8 mb 0.00 in0.0 mm 0.00 in0.0 mm 0.00 in0.0 mm
03:40 AM 22.6°F-5.2°C 18.5°F-7.5°C 84% 11.0 mph W17.7 kmh W 26.0 mph41.8 kmh 29.78 in1008.5 mb 0.00 in0.0 mm 0.00 in0.0 mm 0.00 in0.0 mm
03:30 AM 23.0°F-5.0°C 18.9°F-7.3°C 84% 12.0 mph W19.3 kmh W 27.0 mph43.5 kmh 29.79 in1008.8 mb 0.00 in0.0 mm 0.00 in0.0 mm 0.00 in0.0 mm
03:20 AM 23.2°F-4.9°C 19.0°F-7.2°C 84% 12.0 mph W19.3 kmh W 24.0 mph38.6 kmh 29.79 in1008.8 mb 0.00 in0.0 mm 0.00 in0.0 mm 0.00 in0.0 mm
03:10 AM 23.4°F-4.8°C 19.0°F-7.2°C 83% 12.0 mph W19.3 kmh W 27.0 mph43.5 kmh 29.78 in1008.5 mb 0.00 in0.0 mm 0.00 in0.0 mm 0.00 in0.0 mm
03:00 AM 23.7°F-4.6°C 19.2°F-7.1°C 83% 13.0 mph W20.9 kmh W 24.0 mph38.6 kmh 29.77 in1008.1 mb 0.00 in0.0 mm 0.00 in0.0 mm 0.00 in0.0 mm
02:50 AM 23.9°F-4.5°C 19.8°F-6.8°C 84% 11.0 mph W17.7 kmh W 22.0 mph35.4 kmh 29.77 in1008.1 mb 0.00 in0.0 mm 0.00 in0.0 mm 0.00 in0.0 mm
02:40 AM 24.3°F-4.3°C 19.8°F-6.8°C 83% 12.0 mph W19.3 kmh W 27.0 mph43.5 kmh 29.76 in1007.8 mb 0.00 in0.0 mm 0.00 in0.0 mm 0.00 in0.0 mm
02:30 AM 24.8°F-4.0°C 20.7°F-6.3°C 84% 11.0 mph WNW17.7 kmh WNW 23.0 mph37.0 kmh 29.76 in1007.8 mb 0.00 in0.0 mm 0.00 in0.0 mm 0.00 in0.0 mm
02:20 AM 25.2°F-3.8°C 21.4°F-5.9°C 85% 12.0 mph WNW19.3 kmh WNW 26.0 mph41.8 kmh 29.75 in1007.5 mb 0.00 in0.0 mm 0.00 in0.0 mm 0.00 in0.0 mm
02:10 AM 25.3°F-3.7°C 21.2°F-6.0°C 84% 13.0 mph W20.9 kmh W 26.0 mph41.8 kmh 29.75 in1007.5 mb 0.00 in0.0 mm 0.00 in0.0 mm 0.00 in0.0 mm
02:00 AM 25.7°F-3.5°C 21.6°F-5.8°C 84% 12.0 mph WNW19.3 kmh WNW 23.0 mph37.0 kmh 29.74 in1007.1 mb 0.00 in0.0 mm 0.00 in0.0 mm 0.00 in0.0 mm
01:50 AM 26.2°F-3.2°C 22.1°F-5.5°C 84% 11.0 mph W17.7 kmh W 21.0 mph33.8 kmh 29.73 in1006.8 mb 0.00 in0.0 mm 0.00 in0.0 mm 0.00 in0.0 mm
01:40 AM 26.8°F-2.9°C 22.8°F-5.1°C 85% 10.0 mph WNW16.1 kmh WNW 22.0 mph35.4 kmh 29.73 in1006.8 mb 0.00 in0.0 mm 0.00 in0.0 mm 0.00 in0.0 mm
01:30 AM 27.0°F-2.8°C 23.2°F-4.9°C 85% 10.0 mph WNW16.1 kmh WNW 24.0 mph38.6 kmh 29.72 in1006.4 mb 0.00 in0.0 mm 0.00 in0.0 mm 0.00 in0.0 mm
01:20 AM 27.3°F-2.6°C 23.4°F-4.8°C 85% 11.0 mph W17.7 kmh W 22.0 mph35.4 kmh 29.71 in1006.1 mb 0.00 in0.0 mm 0.00 in0.0 mm 0.00 in0.0 mm
01:10 AM 27.9°F-2.3°C 23.5°F-4.7°C 84% 11.0 mph W17.7 kmh W 27.0 mph43.5 kmh 29.71 in1006.1 mb 0.00 in0.0 mm 0.00 in0.0 mm 0.00 in0.0 mm
01:00 AM 28.9°F-1.7°C 25.0°F-3.9°C 85% 11.0 mph W17.7 kmh W 20.0 mph32.2 kmh 29.70 in1005.8 mb 0.00 in0.0 mm 0.00 in0.0 mm 0.00 in0.0 mm
12:50 AM 30.0°F-1.1°C 26.1°F-3.3°C 85% 11.0 mph WNW17.7 kmh WNW 22.0 mph35.4 kmh 29.69 in1005.4 mb 0.00 in0.0 mm 0.00 in0.0 mm 0.00 in0.0 mm
12:40 AM 30.4°F-0.9°C 26.6°F-3.0°C 86% 11.0 mph WNW17.7 kmh WNW 26.0 mph41.8 kmh 29.69 in1005.4 mb 0.00 in0.0 mm 0.00 in0.0 mm 0.00 in0.0 mm
12:30 AM 30.9°F-0.6°C 27.7°F-2.4°C 88% 9.0 mph WNW14.5 kmh WNW 21.0 mph33.8 kmh 29.68 in1005.1 mb 0.00 in0.0 mm 0.00 in0.0 mm 0.00 in0.0 mm
12:20 AM 30.9°F-0.6°C 27.5°F-2.5°C 87% 9.0 mph NW14.5 kmh NW 21.0 mph33.8 kmh 29.68 in1005.1 mb 0.00 in0.0 mm 0.00 in0.0 mm 0.00 in0.0 mm
12:10 AM 31.1°F-0.5°C 27.7°F-2.4°C 87% 9.0 mph NW14.5 kmh NW 21.0 mph33.8 kmh 29.68 in1005.1 mb 0.00 in0.0 mm 0.00 in0.0 mm 0.00 in0.0 mm
12:00 AM 31.3°F-0.4°C 28.4°F-2.0°C 89% 10.0 mph NW16.1 kmh NW 29.0 mph46.7 kmh 29.67 in1004.7 mb 0.00 in0.0 mm 0.00 in0.0 mm 0.00 in0.0 mm